Create Custom Reports and Graphics: Custom Report

Alpine-Roundhouse Btm 6950'

Current Conditions

5/30/20 8:30 PM (-07:00)
Updated Every 15 Minutes
Temp 42.6 °F   16.9
RH 92 %   37
Wet Bulb 41.4 °F   8.6
Dew Pt 40.5 °F   2.8
Wind Spd 4.5 mph
Wind Dir SSE | 147 °
Wind Gust 12.1 mph   6.7
WindChill 37.4 °F   22.2
Barometric Pressure 30.02 inHg   0.07
Daily Min Temp 42.3 °F   10.8
Daily Max Temp 58.2 °F   19.7
Latest Rain 0.01 In
Daily Rain 0.18 In
New Snow 0.5 in
SnowDepth 1.3 in

Last 6 Hours

Alpine-Roundhouse Btm 6950'

15 Minute Data | America/Los_Angeles
as of 5/30/20 8:35 PM PDT
Date & Time Temp (°F) RH (%) Dew Pt (°F) Wet Bulb (°F) Wind Dir (°) Wind Spd (mph) Wind Gust (mph) WindChill (°F) Barometric Pressure (inHg) New Snow (in) SnowDepth (in) Latest Rain (In) Daily Rain (In) Daily Min Temp (°F) Daily Max Temp (°F)
5/30/20 - 2030 42.6 92 40.5 41.4 SSE | 147 4.5 12.1 37.4 30.02 0.5 1.3 0.01 0.18 42.3 58.2
5/30/20 - 2015 43.1 88 40.0 41.4 SE | 142 6.5 15.4 40.2 30.01 0.5 1.0 0.00 0.17 42.3 58.2
5/30/20 - 2000 43.4 86 39.6 41.3 SE | 138 4.9 12.3 39.6 30.00 0.5 1.0 0.00 0.17 42.3 58.2
5/30/20 - 1945 43.4 85 39.2 41.2 SE | 124 4.8 12.2 43.4 30.01 0.5 1.0 0.00 0.17 42.3 58.2
5/30/20 - 1930 43.2 84 38.7 40.8 SE | 136 3.6 12.7 43.2 30.02 0.5 0.8 0.00 0.17 42.3 58.2
5/30/20 - 1915 43.4 81 37.8 40.5 SE | 139 4.8 12.8 43.4 30.01 0.5 1.0 0.00 0.17 42.3 58.2
5/30/20 - 1900 43.6 81 38.1 40.7 SE | 126 5.7 20.0 40.2 30.01 0.5 0.9 0.00 0.17 42.3 58.2
5/30/20 - 1845 43.5 81 38.1 40.7 SSE | 149 6.3 15.2 43.5 30.00 0.5 1.0 0.00 0.17 42.3 58.2
5/30/20 - 1830 44.0 76 37.0 40.4 SE | 127 4.7 10.6 41.7 30.01 0.5 1.3 0.00 0.17 42.3 58.2
5/30/20 - 1815 43.7 80 37.9 40.6 SE | 140 5.9 17.3 41.5 30.00 0.5 1.1 0.00 0.17 42.3 58.2
5/30/20 - 1800 43.9 81 38.6 41.1 SE | 142 6.5 17.7 39.1 29.99 0.5 1.3 0.00 0.17 42.3 58.2
5/30/20 - 1745 43.9 80 38.0 40.8 SE | 127 3.5 8.9 43.9 30.00 0.5 1.3 0.00 0.17 42.3 58.2
5/30/20 - 1730 44.0 85 39.9 41.9 E | 98 3.4 11.0 39.8 30.01 0.5 1.3 0.00 0.17 42.3 58.2
5/30/20 - 1715 43.4 87 39.6 41.4 SE | 140 3.8 11.2 41.5 30.01 0.5 1.3 0.00 0.17 42.3 58.2
5/30/20 - 1700 43.0 86 39.0 40.9 SE | 129 3.7 12.2 43.0 30.01 0.5 1.3 0.00 0.17 42.3 58.2
5/30/20 - 1645 43.1 88 39.7 41.2 SE | 136 6.0 14.6 38.2 30.02 0.5 1.3 0.01 0.17 42.3 58.2
5/30/20 - 1630 43.5 88 40.1 41.7 SE | 124 4.8 12.8 40.9 30.03 0.5 1.3 0.00 0.16 42.3 58.2
5/30/20 - 1615 43.3 87 39.7 41.4 ESE | 123 2.7 9.4 43.3 30.03 0.5 1.5 0.00 0.16 42.3 58.2
5/30/20 - 1600 43.0 92 40.8 41.8 S | 174 3.7 9.1 43.0 30.03 0.5 1.5 0.00 0.16 42.3 58.2
5/30/20 - 1545 43.2 88 39.8 41.4 SSE | 154 4.5 10.9 39.8 30.03 0.5 1.4 0.04 0.16 42.3 58.2
5/30/20 - 1530 45.0 84 40.6 42.6 SSE | 157 3.7 8.4 43.4 30.03 0.5 1.5 0.00 0.12 42.3 58.2
5/30/20 - 1515 45.9 83 41.0 43.2 SSE | 150 3.7 11.0 43.4 30.02 0.5 1.4 0.00 0.12 42.3 58.2
5/30/20 - 1500 45.1 82 39.8 42.2 SE | 138 3.3 8.9 42.8 30.03 0.5 1.5 0.00 0.12 42.3 58.2
5/30/20 - 1445 43.9 86 40.0 41.8 SSE | 157 4.2 10.9 40.8 30.02 0.5 1.5 0.02 0.12 42.3 58.2
Max 45.9 92 41.0 43.2 - 6.5 20.0 43.9 30.03 0.5 1.5 0.04 0.18 42.3 58.2
Avg 43.7 85 39.3 41.4 - 4.5 12.4 41.5 30.01 0.5 1.2 0.00 - - -
Min 42.6 76 37.0 40.4 - 2.7 8.4 37.4 29.99 0.5 0.8 0.00 0.12 42.3 58.2
Total - - - - - - - - - - - 0.08 - - -

Last 30 Days

Alpine-Roundhouse Btm 6950'

Daily Data | America/Los_Angeles
as of 5/30/20 8:35 PM PDT
Date Daily Max Temp (°F) Max Temp Time Daily Min Temp (°F) Min Temp Time Wind Spd (mph) Daily Max Wind (mph) Max Wind Dir (°) Max Wind Time Daily Rain (In) Seasonal Rainfall (In) SnowDepth (in) Max RH (%) Min RH (%) Wet Bulb (°F) WetB Hrs <28F (hrs) Min Press (inHg) Time of Min Press Bat Volt Min Day (V)
5/29/20 77.9 1444 53.2 0548 2.8 16.4 S | 177 1646 0.07 16.84 1.5 84 20 49.3 0.0 30.04 2345 13.0
5/28/20 77.6 1618 53.5 0452 3.0 17.9 S | 184 1417 0.00 16.77 0.8 49 12 47.1 0.0 30.19 1835 13.1
5/27/20 73.5 1419 52.8 0549 3.8 14.2 SE | 128 1322 0.00 16.77 1.5 70 22 49.9 0.0 30.18 0415 13.1
5/26/20 73.1 1101 50.4 0540 3.1 17.4 SE | 135 1602 0.00 16.77 0.6 78 33 51.4 0.0 30.16 0335 13.1
5/25/20 71.7 1506 45.5 0630 2.6 13.5 ESE | 115 1648 0.00 16.77 1.1 65 25 46.5 0.0 30.16 1515 13.1
5/24/20 63.7 1737 40.1 0646 2.5 10.1 S | 172 1223 0.00 16.77 1.2 68 26 41.2 0.0 30.11 0020 13.0
5/23/20 59.2 1704 31.6 0553 2.0 15.2 S | 177 1904 0.00 16.77 1.5 70 25 36.1 5.1 30.04 0230 13.0
5/22/20 48.3 1501 34.2 2344 3.7 22.9 NNW | 347 1137 0.00 16.77 1.6 88 37 36.8 0.3 29.94 1030 13.0
5/21/20 53.9 1031 33.9 0526 3.0 20.8 SE | 146 1414 0.00 16.77 1.0 94 29 39.2 0.0 30.03 2250 13.0
5/20/20 44.4 1743 33.3 0526 2.4 15.7 SSE | 158 0839 0.10 16.77 1.8 100 70 36.4 0.0 30.03 0345 13.0
5/19/20 38.3 1401 30.4 0507 2.9 16.0 SSE | 164 1136 0.11 16.67 3.8 100 77 33.4 0.0 29.90 0435 13.0
5/18/20 37.9 0008 30.9 0959 4.1 26.0 SSE | 166 0555 1.02 16.56 4.6 100 86 33.1 0.0 29.81 0400 13.0
5/17/20 46.0 0808 37.4 2358 7.3 33.2 SE | 137 1611 1.89 15.54 1.4 96 62 40.4 0.0 29.86 2020 13.0
5/16/20 57.7 1406 41.8 0240 4.5 24.7 SSE | 149 2252 0.00 13.65 1.3 86 38 42.4 0.0 29.94 2250 13.0
5/15/20 54.1 1453 33.3 0440 1.9 12.8 SSE | 165 1426 0.00 13.65 1.6 96 38 39.6 0.0 30.08 0330 13.0
5/14/20 39.7 1740 34.2 0752 3.6 22.5 SE | 132 0722 0.19 13.65 1.6 98 81 35.9 0.0 30.02 0005 13.0
5/13/20 41.4 1047 33.3 0617 4.4 19.4 SSE | 149 2247 0.16 13.46 1.6 97 58 34.4 0.0 29.95 0240 13.0
5/12/20 39.8 0322 35.1 2356 7.0 35.6 S | 179 0333 0.41 13.30 2.4 96 81 35.8 0.0 29.87 0610 13.0
5/11/20 50.8 1222 37.2 2345 6.2 35.3 ESE | 114 2007 0.00 12.89 3.6 83 28 37.2 0.0 29.92 1810 13.1
5/10/20 62.8 1314 47.5 2323 3.6 19.5 SSE | 160 1245 0.00 12.89 7.5 71 34 44.9 0.0 30.04 1810 13.0
5/9/20 68.7 1319 47.5 0505 3.2 14.0 S | 177 1554 0.00 12.89 11.3 56 18 43.0 0.0 30.12 1740 13.1
5/8/20 67.6 1334 42.0 0519 2.8 11.7 S | 186 1559 0.00 12.89 14.8 52 15 41.2 0.0 30.14 0505 13.1
5/7/20 61.0 1723 38.1 0549 2.5 10.4 S | 181 1131 0.00 12.89 17.7 52 21 37.5 0.0 30.16 1950 13.1
5/6/20 61.3 1542 43.1 2357 3.5 16.1 SE | 139 0011 0.00 12.89 20.3 49 8 36.7 0.0 30.19 0050 13.1
5/5/20 58.0 1434 39.1 0444 3.6 23.4 SE | 138 1724 0.00 12.89 22.7 52 17 37.2 0.0 30.17 0510 13.1
5/4/20 56.6 1321 31.3 0554 2.4 14.3 SSW | 196 1530 0.00 12.89 25.1 60 13 33.5 6.9 30.18 0305 13.1
5/3/20 49.9 1213 35.3 2257 3.4 17.3 SSE | 149 1602 0.00 12.89 26.7 81 21 36.0 0.1 30.11 0525 13.0
5/2/20 50.7 1222 40.2 0638 5.0 28.7 SSE | 154 1427 0.00 12.89 28.9 81 36 37.1 0.0 30.09 0305 13.0
5/1/20 55.4 1312 38.1 0516 3.0 19.8 S | 171 2033 0.00 12.89 31.9 77 29 38.6 0.0 30.10 0445 13.0
4/30/20 52.5 1025 41.8 2318 4.7 25.8 S | 170 1613 0.00 12.89 33.7 88 39 41.2 0.0 30.10 1850 13.0
Max 77.9 - 53.5 - 7.3 35.6 - - 1.89 - 33.7 100 86 51.4 6.9 30.19 - 13.1
Avg - - - - 3.6 - - - - - 9.2 - - 39.8 - - - -
Min 37.9 - 30.4 - 1.9 10.1 - - 0.00 - 0.6 49 8 33.1 0.0 29.81 - 13.0
Calm: 0.0%
Calm: 0.0%